MMIO

Plan De Guadalupe International Airport

Saltillo, Mexico
TAF MMIO 201712Z 2018/2118 03012KT P6SM SCT120 SCT220 FM202100 36015KT 6SM HZ SCT030 BKN220 BECMG 2101/2102 03005KT FM210600 00000KT P6SM SCT220 FM211200 18005KT 6SM HZ SCT220
Issued Valid From Valid To
Apr-20 @ 17:12 UTC
(11 hours ago)
Apr-20 @ 18:00 UTC
(10 hours ago)
Apr-21 @ 18:00 UTC
(in 14 hours)
Expired Click to View Apr-20 @ 18:00 to Apr-20 @ 21:00
TAF MMIO 201712Z 2018/2118 03012KT P6SM SCT120 SCT220
Wind Visibility Clouds
30° at 12 knots Greater than 6 miles
  • Scattered at 12,000' AGL
  • Scattered at 22,000' AGL
Expired Click to View Apr-20 @ 21:00 to Apr-21 @ 01:00
FM202100 36015KT 6SM HZ SCT030 BKN220
Wind Visibility Clouds Conditions
360° at 15 knots 6 miles
  • Scattered at 3,000' AGL
  • Broken at 22,000' AGL
  • Haze
Becoming Apr-21 @ 01:00 to Apr-21 @ 06:00
BECMG 2101/2102 03005KT
Wind Visibility Clouds Conditions
30° at 5 knots 6 miles
  • Scattered at 3,000' AGL
  • Broken at 22,000' AGL
  • Haze
From Apr-21 @ 06:00 to Apr-21 @ 12:00
FM210600 00000KT P6SM SCT220
Visibility Clouds
Greater than 6 miles
  • Scattered at 22,000' AGL
From Apr-21 @ 12:00 to Apr-21 @ 18:00
FM211200 18005KT 6SM HZ SCT220
Wind Visibility Clouds Conditions
180° at 5 knots 6 miles
  • Scattered at 22,000' AGL
  • Haze
TAF MMIO 201712Z 2018/2118 03012KT P6SM SCT120 SCT220 FM202100 36015KT 6SM HZ SCT030 BKN220 BECMG 2101/2102 03005KT FM210600 00000KT P6SM SCT220 FM211200 18005KT 6SM HZ SCT220
Issued Apr-20 @ 17:12 UTC
(11 hours ago)
Valid From Apr-20 @ 18:00 UTC
(10 hours ago)
Valid To Apr-21 @ 18:00 UTC
(in 14 hours)
Apr-20 @ 18:00 - Apr-20 @ 21:00
Wind Visibility
30° at 12 knots Greater than 6 miles
Clouds
  • Scattered at 12,000' AGL
  • Scattered at 22,000' AGL
Apr-20 @ 21:00 - Apr-21 @ 01:00
Wind Visibility
360° at 15 knots 6 miles
Clouds
  • Scattered at 3,000' AGL
  • Broken at 22,000' AGL
Conditions
  • Haze
Becoming Apr-21 @ 01:00 - Apr-21 @ 06:00
Wind Visibility
30° at 5 knots 6 miles
Clouds
  • Scattered at 3,000' AGL
  • Broken at 22,000' AGL
Conditions
  • Haze
From Apr-21 @ 06:00 - Apr-21 @ 12:00
Clouds
  • Scattered at 22,000' AGL
From Apr-21 @ 12:00 - Apr-21 @ 18:00
Wind Visibility
180° at 5 knots 6 miles
Clouds
  • Scattered at 22,000' AGL
Conditions
  • Haze